Terminal Aerodrome Forecast
Issued by NWS Portland, ME

Home | Current Version | Previous Version | Text Only | Print | Product List | Glossary On
Versions: 1 2 3 4 5 6 7 8 9 10 11 12 13 14 15 16 17 18 19 20 21
645
FTUS41 KGYX 292320
TAFCON
TAF
KCON 292320Z 3000/3024 09005KT P6SM OVC012
     FM300200 VRB03KT P6SM OVC008
     FM300600 00000KT 4SM BR OVC003
     FM301400 15005KT P6SM OVC012
     FM301800 15007KT P6SM BKN025 OVC040=

USA.gov is the U.S. government's official web portal to all federal, state and local government web resources and services.